createdAt,value
2018-02-09T00:00:20.955Z,45.55
2018-02-09T00:02:49.113Z,43.92
2018-02-09T00:05:17.266Z,46.67
2018-02-09T00:07:45.364Z,44.85
2018-02-09T00:10:13.586Z,46.92
2018-02-09T00:12:41.714Z,44.95
2018-02-09T00:15:09.833Z,45.55
2018-02-09T00:17:37.980Z,43.38
2018-02-09T00:20:06.113Z,44.22
2018-02-09T00:22:46.239Z,46.75
2018-02-09T00:25:14.366Z,41.65
2018-02-09T00:27:42.492Z,45.38
2018-02-09T00:30:10.637Z,41.80
2018-02-09T00:32:39.592Z,42.45
2018-02-09T00:35:07.694Z,42.08
2018-02-09T00:37:35.886Z,43.25
2018-02-09T00:40:04.033Z,43.08
2018-02-09T00:42:32.149Z,38.75
2018-02-09T00:45:00.270Z,41.08
2018-02-09T00:47:28.476Z,38.47
2018-02-09T00:49:56.618Z,41.05
2018-02-09T00:52:24.770Z,42.22
2018-02-09T00:54:52.892Z,38.70
2018-02-09T00:57:21.036Z,40.72
2018-02-09T00:59:49.156Z,40.00
2018-02-09T01:02:17.272Z,40.47
2018-02-09T01:04:45.416Z,41.67
2018-02-09T01:07:13.558Z,38.25
2018-02-09T01:09:41.682Z,37.67
2018-02-09T01:12:09.916Z,37.15
2018-02-09T01:14:38.044Z,37.22
2018-02-09T01:17:06.155Z,37.97
2018-02-09T01:19:34.320Z,37.42
2018-02-09T01:22:02.517Z,38.03
2018-02-09T01:24:30.618Z,35.78
2018-02-09T01:26:58.735Z,36.47
2018-02-09T01:29:26.911Z,41.15
2018-02-09T01:31:55.032Z,35.47
2018-02-09T01:34:23.166Z,37.50
2018-02-09T01:36:51.354Z,36.53
2018-02-09T01:39:19.476Z,35.78
2018-02-09T01:41:48.535Z,33.15
2018-02-09T01:44:17.381Z,35.10
2018-02-09T01:46:45.495Z,35.50
2018-02-09T01:49:13.610Z,32.25
2018-02-09T01:51:42.717Z,34.25
2018-02-09T01:54:10.882Z,34.60
2018-02-09T01:56:39.766Z,32.83
2018-02-09T01:59:08.679Z,32.30
2018-02-09T02:01:36.839Z,33.40
2018-02-09T02:04:05.755Z,33.88
2018-02-09T02:06:33.906Z,35.15
2018-02-09T02:09:02.018Z,31.90
2018-02-09T02:11:30.149Z,33.00
2018-02-09T02:13:59.145Z,33.67
2018-02-09T02:16:27.256Z,34.47
2018-02-09T02:18:55.383Z,34.17
2018-02-09T02:21:24.380Z,34.60
2018-02-09T02:23:53.267Z,33.38
2018-02-09T02:26:21.379Z,32.17
2018-02-09T02:28:49.487Z,31.42
2018-02-09T02:31:17.635Z,33.05
2018-02-09T02:33:45.743Z,32.08
2018-02-09T02:36:14.623Z,32.10
2018-02-09T02:38:42.755Z,32.35
2018-02-09T02:41:10.863Z,33.67
2018-02-09T02:43:38.991Z,31.48
2018-02-09T02:46:07.125Z,33.05
2018-02-09T02:48:35.999Z,32.38
2018-02-09T02:51:04.131Z,33.72
2018-02-09T02:53:32.259Z,31.77
2018-02-09T02:56:01.135Z,31.60
2018-02-09T02:58:29.251Z,33.25
2018-02-09T03:00:57.407Z,34.22
2018-02-09T03:03:25.547Z,30.50
2018-02-09T03:05:53.751Z,33.58
2018-02-09T03:08:21.872Z,33.30
2018-02-09T03:10:49.987Z,34.42
2018-02-09T03:13:18.905Z,31.48
2018-02-09T03:15:47.023Z,32.58
2018-02-09T03:18:15.130Z,31.95
2018-02-09T03:20:43.311Z,31.20
2018-02-09T03:23:11.427Z,32.97
2018-02-09T03:25:39.558Z,30.70
2018-02-09T03:28:07.671Z,29.60
2018-02-09T03:30:35.895Z,29.35
2018-02-09T03:33:04.023Z,28.62
2018-02-09T03:35:32.158Z,27.00
2018-02-09T03:38:00.322Z,27.92
2018-02-09T03:40:29.331Z,28.67
2018-02-09T03:42:58.222Z,27.33
2018-02-09T03:45:26.359Z,26.67
2018-02-09T03:47:55.239Z,27.05
2018-02-09T03:50:24.122Z,25.62
2018-02-09T03:52:52.314Z,23.48
2018-02-09T03:55:21.235Z,23.08
2018-02-09T03:57:49.360Z,25.52
2018-02-09T04:00:18.242Z,24.20
2018-02-09T04:02:46.378Z,26.08
2018-02-09T04:05:14.514Z,24.35
2018-02-09T04:07:43.390Z,22.87
2018-02-09T04:10:12.300Z,22.42
2018-02-09T04:12:40.474Z,25.00
2018-02-09T04:15:08.602Z,24.45
2018-02-09T04:17:36.834Z,24.85
2018-02-09T04:20:04.952Z,24.00
2018-02-09T04:22:33.106Z,24.87
2018-02-09T04:25:01.239Z,25.70
2018-02-09T04:27:29.362Z,24.85
2018-02-09T04:29:57.475Z,25.23
2018-02-09T04:32:25.648Z,25.48
2018-02-09T04:34:53.782Z,26.42
2018-02-09T04:37:21.902Z,27.92
2018-02-09T04:39:50.026Z,23.85
2018-02-09T04:42:18.150Z,26.17
2018-02-09T04:44:46.296Z,25.00
2018-02-09T04:47:15.183Z,27.02
2018-02-09T04:49:44.076Z,23.55
2018-02-09T04:52:12.958Z,24.90
2018-02-09T04:54:41.850Z,24.25
2018-02-09T04:57:10.744Z,26.75
2018-02-09T04:59:39.617Z,24.73
2018-02-09T05:02:07.750Z,23.33
2018-02-09T05:04:35.874Z,25.98
2018-02-09T05:07:04.755Z,22.35
2018-02-09T05:09:32.894Z,24.80
2018-02-09T05:12:01.008Z,29.52
2018-02-09T05:14:30.020Z,27.13
2018-02-09T05:16:58.129Z,27.40
2018-02-09T05:19:26.247Z,26.70
2018-02-09T05:21:55.144Z,25.85
2018-02-09T05:24:24.038Z,27.00
2018-02-09T05:26:52.167Z,27.27
2018-02-09T05:29:20.392Z,26.30
2018-02-09T05:31:48.565Z,30.37
2018-02-09T05:34:16.701Z,27.65
2018-02-09T05:36:44.899Z,27.95
2018-02-09T05:39:13.785Z,28.15
2018-02-09T05:41:42.673Z,30.12
2018-02-09T05:44:11.575Z,28.35
2018-02-09T05:46:39.711Z,26.30
2018-02-09T05:49:07.845Z,29.92
2018-02-09T05:51:35.963Z,28.67
2018-02-09T05:54:04.099Z,29.05
2018-02-09T05:56:32.231Z,29.48
2018-02-09T05:59:01.107Z,27.77
2018-02-09T06:01:29.219Z,30.50
2018-02-09T06:03:57.409Z,33.17
2018-02-09T06:06:25.547Z,32.08
2018-02-09T06:08:53.715Z,32.28
2018-02-09T06:11:22.599Z,33.40
2018-02-09T06:13:51.491Z,32.33
2018-02-09T06:16:20.483Z,33.80
2018-02-09T06:18:49.368Z,32.10
2018-02-09T06:21:18.247Z,32.65
2018-02-09T06:23:46.379Z,37.47
2018-02-09T06:26:14.509Z,34.30
2018-02-09T06:28:43.391Z,31.77
2018-02-09T06:31:12.283Z,33.78
2018-02-09T06:33:40.451Z,34.38
2018-02-09T06:36:08.623Z,34.00
2018-02-09T06:38:36.686Z,34.95
2018-02-09T06:41:04.803Z,30.37
2018-02-09T06:43:32.942Z,36.15
2018-02-09T06:46:01.873Z,35.58
2018-02-09T06:48:29.971Z,31.83
2018-02-09T06:50:58.108Z,31.70
2018-02-09T06:53:26.228Z,31.70
2018-02-09T06:55:54.352Z,36.75
2018-02-09T06:58:22.530Z,31.75
2018-02-09T07:00:50.770Z,34.95
2018-02-09T07:03:19.682Z,34.75
2018-02-09T07:05:47.802Z,35.88
2018-02-09T07:08:15.918Z,35.60
2018-02-09T07:10:44.070Z,34.10
2018-02-09T07:13:12.180Z,34.13
2018-02-09T07:15:40.318Z,33.35
2018-02-09T07:18:09.219Z,36.25
2018-02-09T07:20:38.118Z,36.67
2018-02-09T07:23:06.246Z,35.13
2018-02-09T07:25:34.440Z,34.33
2018-02-09T07:28:03.342Z,35.80
2018-02-09T07:30:32.218Z,34.95
2018-02-09T07:33:01.234Z,35.90
2018-02-09T07:35:29.360Z,34.67
2018-02-09T07:37:57.503Z,37.92
2018-02-09T07:40:25.638Z,36.72
2018-02-09T07:42:54.518Z,40.67
2018-02-09T07:45:23.402Z,39.28
2018-02-09T07:47:52.437Z,39.88
2018-02-09T07:50:20.594Z,38.38
2018-02-09T07:52:48.746Z,41.80
2018-02-09T07:55:17.828Z,46.60
2018-02-09T07:57:45.958Z,41.70
2018-02-09T08:00:14.094Z,40.08
2018-02-09T08:02:42.978Z,41.35
2018-02-09T08:05:11.874Z,41.50
2018-02-09T08:07:40.782Z,40.53
2018-02-09T08:10:08.942Z,44.05
2018-02-09T08:12:37.054Z,45.28
2018-02-09T08:15:05.305Z,45.10
2018-02-09T08:17:34.296Z,43.95
2018-02-09T08:20:02.416Z,47.65
2018-02-09T08:22:30.578Z,45.85
2018-02-09T08:24:58.698Z,47.03
2018-02-09T08:27:27.608Z,47.70
2018-02-09T08:29:55.757Z,45.83
2018-02-09T08:32:24.654Z,47.72
2018-02-09T08:34:52.825Z,46.63
2018-02-09T08:37:21.706Z,48.00
2018-02-09T08:39:50.705Z,50.72
2018-02-09T08:42:19.689Z,48.47
2018-02-09T08:44:48.580Z,46.90
2018-02-09T08:47:17.508Z,47.47
2018-02-09T08:49:45.681Z,48.28
2018-02-09T08:52:13.812Z,48.97
2018-02-09T08:54:42.003Z,58.38
2018-02-09T08:57:10.921Z,52.92
2018-02-09T08:59:39.047Z,56.17
2018-02-09T09:02:07.957Z,52.05
2018-02-09T09:04:36.073Z,54.83
2018-02-09T09:07:04.253Z,57.95
2018-02-09T09:09:32.367Z,55.53
2018-02-09T09:12:01.255Z,54.08
2018-02-09T09:14:30.123Z,54.20
2018-02-09T09:16:58.331Z,54.10
2018-02-09T09:19:26.471Z,57.45
2018-02-09T09:21:54.697Z,55.17
2018-02-09T09:24:22.783Z,56.72
2018-02-09T09:26:50.957Z,60.17
2018-02-09T09:29:19.113Z,54.47
2018-02-09T09:31:47.259Z,52.72
2018-02-09T09:34:16.176Z,52.60
2018-02-09T09:36:45.047Z,54.85
2018-02-09T09:39:13.155Z,56.13
2018-02-09T09:41:41.279Z,58.70
2018-02-09T09:44:10.151Z,59.85
2018-02-09T09:46:38.296Z,55.95
2018-02-09T09:49:06.405Z,55.17
2018-02-09T09:51:35.279Z,55.75
2018-02-09T09:54:04.958Z,52.97
2018-02-09T09:56:33.071Z,59.50
2018-02-09T09:59:01.952Z,52.83
2018-02-09T10:01:30.994Z,53.75
2018-02-09T10:03:59.090Z,53.72
2018-02-09T10:06:27.227Z,51.20
2018-02-09T10:08:55.393Z,52.50
2018-02-09T10:11:23.538Z,53.78
2018-02-09T10:13:51.735Z,52.30
2018-02-09T10:16:20.607Z,53.20
2018-02-09T10:18:49.534Z,51.55
2018-02-09T10:21:17.692Z,53.92
2018-02-09T10:23:45.889Z,54.00
2018-02-09T10:26:13.973Z,54.92
2018-02-09T10:28:42.111Z,54.22
2018-02-09T10:31:10.291Z,52.97
2018-02-09T10:33:38.403Z,53.42
2018-02-09T10:36:06.558Z,53.58
2018-02-09T10:38:34.715Z,53.45
2018-02-09T10:41:02.831Z,50.78
2018-02-09T10:43:30.981Z,55.75
2018-02-09T10:45:59.113Z,50.95
2018-02-09T10:48:27.291Z,49.72
2018-02-09T10:50:55.423Z,50.28
2018-02-09T10:53:23.551Z,53.80
2018-02-09T10:55:51.666Z,50.75
2018-02-09T10:58:19.797Z,50.67
2018-02-09T11:01:00.478Z,50.03
2018-02-09T11:03:28.647Z,46.05
2018-02-09T11:05:56.890Z,48.05
2018-02-09T11:08:25.018Z,49.90
2018-02-09T11:10:53.158Z,47.22
2018-02-09T11:16:14.615Z,42.65
2018-02-09T11:18:42.744Z,44.38
2018-02-09T11:21:10.857Z,44.22
2018-02-09T11:23:38.978Z,42.35
2018-02-09T11:26:07.900Z,41.10
2018-02-09T11:28:36.028Z,42.62
2018-02-09T11:31:04.940Z,42.88
2018-02-09T11:33:33.838Z,41.05
2018-02-09T11:36:01.976Z,42.20
2018-02-09T11:38:30.116Z,41.05
2018-02-09T11:40:58.214Z,44.08
2018-02-09T11:43:26.363Z,40.10
2018-02-09T11:45:54.483Z,39.80
2018-02-09T11:48:23.404Z,42.67
2018-02-09T11:50:51.524Z,39.75
2018-02-09T11:53:19.720Z,40.10
2018-02-09T11:55:48.622Z,37.03
2018-02-09T11:58:16.746Z,39.42
2018-02-09T12:00:44.864Z,37.60
2018-02-09T12:03:12.970Z,39.85
2018-02-09T12:05:41.204Z,38.55
2018-02-09T12:08:10.202Z,42.58
2018-02-09T12:10:38.319Z,37.65
2018-02-09T12:13:06.440Z,34.55
2018-02-09T12:15:35.462Z,35.42
2018-02-09T12:18:04.425Z,35.35
2018-02-09T12:20:33.334Z,36.35
2018-02-09T12:23:01.447Z,34.45
2018-02-09T12:25:29.564Z,33.45
2018-02-09T12:27:57.719Z,35.38
2018-02-09T12:30:26.611Z,33.05
2018-02-09T12:32:55.896Z,27.13
2018-02-09T12:35:24.016Z,30.10
2018-02-09T12:37:52.282Z,27.23
2018-02-09T12:40:21.198Z,26.58
2018-02-09T12:42:49.331Z,25.58
2018-02-09T12:45:18.326Z,25.17
2018-02-09T12:47:47.222Z,24.95
2018-02-09T12:50:15.389Z,28.58
2018-02-09T12:52:43.511Z,23.35
2018-02-09T12:55:11.621Z,23.45
2018-02-09T12:57:40.619Z,24.85
2018-02-09T13:00:09.487Z,23.05
2018-02-09T13:02:37.695Z,26.27
2018-02-09T13:05:06.063Z,22.50
2018-02-09T13:07:34.955Z,20.17
2018-02-09T13:10:03.843Z,21.85
2018-02-09T13:12:44.723Z,21.58
2018-02-09T13:15:12.831Z,21.58
2018-02-09T13:17:40.963Z,24.37
2018-02-09T13:20:09.847Z,23.90
2018-02-09T13:22:50.547Z,22.70
2018-02-09T13:25:18.655Z,20.88
2018-02-09T13:27:46.771Z,19.77
2018-02-09T13:30:14.900Z,20.70
2018-02-09T13:32:54.939Z,25.65
2018-02-09T13:35:23.085Z,19.40
2018-02-09T13:37:51.215Z,21.48
2018-02-09T13:40:20.087Z,22.08
2018-02-09T13:42:48.238Z,24.25
2018-02-09T13:45:16.352Z,25.10
2018-02-09T13:47:45.259Z,25.90
2018-02-09T13:50:13.435Z,24.33
2018-02-09T13:52:41.602Z,23.67
2018-02-09T13:55:10.486Z,26.98
2018-02-09T13:57:39.378Z,24.65
2018-02-09T14:00:08.282Z,23.55
2018-02-09T14:02:36.420Z,25.50
2018-02-09T14:05:04.631Z,23.67
2018-02-09T14:07:32.795Z,26.27
2018-02-09T14:10:00.973Z,23.40
2018-02-09T14:12:29.842Z,23.30
2018-02-09T14:14:58.762Z,24.70
2018-02-09T14:17:26.938Z,23.40
2018-02-09T14:19:55.082Z,25.12
2018-02-09T14:22:23.182Z,23.55
2018-02-09T14:24:51.302Z,26.75
2018-02-09T14:27:19.524Z,27.45
2018-02-09T14:29:47.646Z,26.95
2018-02-09T14:32:15.782Z,23.85
2018-02-09T14:34:43.943Z,23.80
2018-02-09T14:37:12.068Z,25.35
2018-02-09T14:39:40.182Z,25.40
2018-02-09T14:42:08.334Z,26.70
2018-02-09T14:44:37.268Z,28.33
2018-02-09T14:47:05.440Z,28.87
2018-02-09T14:49:33.593Z,26.55
2018-02-09T14:52:01.714Z,27.08
2018-02-09T14:54:29.816Z,25.80
2018-02-09T14:56:58.719Z,25.73
2018-02-09T14:59:27.626Z,28.45
2018-02-09T15:01:55.784Z,27.62
2018-02-09T15:04:23.932Z,27.15
2018-02-09T15:06:52.060Z,27.00
2018-02-09T15:09:20.307Z,25.62
2018-02-09T15:11:48.434Z,28.50
2018-02-09T15:14:16.540Z,29.45
2018-02-09T15:16:45.634Z,27.73
2018-02-09T15:19:14.518Z,25.20
2018-02-09T15:21:43.435Z,27.55
2018-02-09T15:24:11.594Z,28.75
2018-02-09T15:26:40.486Z,27.90
2018-02-09T15:29:09.355Z,29.75
2018-02-09T15:31:37.480Z,29.75
2018-02-09T15:34:05.591Z,29.02
2018-02-09T15:36:33.750Z,28.58
2018-02-09T15:39:01.887Z,28.70
2018-02-09T15:41:30.008Z,28.95
2018-02-09T15:43:58.123Z,28.23
2018-02-09T15:46:26.248Z,26.77
2018-02-09T15:48:54.457Z,32.60
2018-02-09T15:51:22.612Z,32.53
2018-02-09T15:53:51.491Z,29.20
2018-02-09T15:56:19.603Z,29.55
2018-02-09T15:58:47.723Z,31.42
2018-02-09T16:01:15.948Z,32.00
2018-02-09T16:03:44.039Z,33.00
2018-02-09T16:06:12.171Z,32.30
2018-02-09T16:08:41.063Z,34.00
2018-02-09T16:11:09.943Z,31.30
2018-02-09T16:13:38.823Z,32.47
2018-02-09T16:16:06.980Z,34.00
2018-02-09T16:18:35.104Z,31.73
2018-02-09T16:21:03.293Z,34.10
2018-02-09T16:23:31.383Z,32.08
2018-02-09T16:25:59.530Z,32.95
2018-02-09T16:28:27.675Z,31.05
2018-02-09T16:30:56.598Z,31.27
2018-02-09T16:33:24.745Z,29.85
2018-02-09T16:35:53.635Z,32.05
2018-02-09T16:38:21.767Z,31.75
2018-02-09T16:40:49.915Z,33.88
2018-02-09T16:43:18.031Z,31.98
2018-02-09T16:45:46.159Z,30.20
2018-02-09T16:48:14.303Z,32.20
2018-02-09T16:50:42.460Z,33.08
2018-02-09T16:53:11.369Z,34.92
2018-02-09T16:55:39.535Z,32.70
2018-02-09T16:58:08.423Z,31.10
2018-02-09T17:00:37.524Z,31.70
2018-02-09T17:03:05.643Z,30.52
2018-02-09T17:05:33.751Z,32.70
2018-02-09T17:08:02.671Z,32.17
2018-02-09T17:10:30.790Z,34.20
2018-02-09T17:12:58.907Z,30.73
2018-02-09T17:15:27.074Z,31.30
2018-02-09T17:17:55.238Z,28.55
2018-02-09T17:20:24.130Z,29.23
2018-02-09T17:22:53.055Z,30.58
2018-02-09T17:25:21.202Z,30.40
2018-02-09T17:27:49.379Z,32.40
2018-02-09T17:30:17.527Z,31.98
2018-02-09T17:32:46.424Z,31.45
2018-02-09T17:35:15.342Z,31.87
2018-02-09T17:37:43.510Z,32.75
2018-02-09T17:40:11.662Z,34.45
2018-02-09T17:42:40.574Z,35.35
2018-02-09T17:45:08.686Z,30.75
2018-02-09T17:47:36.802Z,32.20
2018-02-09T17:50:05.730Z,32.08
2018-02-09T17:52:34.787Z,32.90
2018-02-09T17:55:03.668Z,31.37
2018-02-09T17:57:32.568Z,37.00
2018-02-09T18:00:02.387Z,32.50
2018-02-09T18:02:31.306Z,32.00
2018-02-09T18:04:59.454Z,33.65
2018-02-09T18:07:27.624Z,31.92
2018-02-09T18:09:55.895Z,38.67
2018-02-09T18:12:24.812Z,31.37
2018-02-09T18:14:52.908Z,31.75
2018-02-09T18:17:21.062Z,33.22
2018-02-09T18:19:49.206Z,36.15
2018-02-09T18:22:17.318Z,31.40
2018-02-09T18:24:45.544Z,35.03
2018-02-09T18:27:14.539Z,31.08
2018-02-09T18:29:42.815Z,32.75
2018-02-09T18:32:11.724Z,35.92
2018-02-09T18:34:39.834Z,37.75
2018-02-09T18:37:07.986Z,35.83
2018-02-09T18:39:36.124Z,32.45
2018-02-09T18:42:05.038Z,32.25
2018-02-09T18:44:33.164Z,33.30
2018-02-09T18:47:01.316Z,34.38
2018-02-09T18:49:29.481Z,35.83
2018-02-09T18:51:57.627Z,33.85
2018-02-09T18:54:26.624Z,36.08
2018-02-09T18:56:54.751Z,35.28
2018-02-09T18:59:22.873Z,37.58
2018-02-09T19:01:51.192Z,36.00
2018-02-09T19:04:19.393Z,33.88
2018-02-09T19:06:48.260Z,35.63
2018-02-09T19:09:16.386Z,37.28
2018-02-09T19:11:44.526Z,36.47
2018-02-09T19:14:13.392Z,36.95
2018-02-09T19:16:41.582Z,35.15
2018-02-09T19:19:11.184Z,36.90
2018-02-09T19:21:40.074Z,39.60
2018-02-09T19:24:08.951Z,39.67
2018-02-09T19:26:37.058Z,38.13
2018-02-09T19:29:05.200Z,38.00
2018-02-09T19:31:33.357Z,37.05
2018-02-09T19:34:01.564Z,40.42
2018-02-09T19:36:30.435Z,39.67
2018-02-09T19:38:58.571Z,38.25
2018-02-09T19:41:26.800Z,40.50
2018-02-09T19:43:55.679Z,42.65
2018-02-09T19:46:24.555Z,39.28
2018-02-09T19:48:52.762Z,36.70
2018-02-09T19:51:21.645Z,41.58
2018-02-09T19:53:50.526Z,40.65
2018-02-09T19:56:19.407Z,41.05
2018-02-09T19:58:47.629Z,43.15
2018-02-09T20:01:15.755Z,42.00
2018-02-09T20:03:44.627Z,37.97
2018-02-09T20:06:12.779Z,41.67
2018-02-09T20:08:40.935Z,39.78
2018-02-09T20:11:09.043Z,41.03
2018-02-09T20:13:37.265Z,42.65
2018-02-09T20:16:05.431Z,42.60
2018-02-09T20:18:34.355Z,40.88
2018-02-09T20:21:02.475Z,39.97
2018-02-09T20:23:31.371Z,42.42
2018-02-09T20:26:00.247Z,46.47
2018-02-09T20:28:28.353Z,50.03
2018-02-09T20:30:56.517Z,44.17
2018-02-09T20:33:24.718Z,47.22
2018-02-09T20:35:52.847Z,42.97
2018-02-09T20:38:21.722Z,45.05
2018-02-09T20:40:49.855Z,46.90
2018-02-09T20:43:18.015Z,40.75
2018-02-09T20:45:46.162Z,40.97
2018-02-09T20:48:15.031Z,47.22
2018-02-09T20:50:43.227Z,44.22
2018-02-09T20:53:12.102Z,42.75
2018-02-09T20:55:41.034Z,45.75
2018-02-09T20:58:10.004Z,46.50
2018-02-09T21:00:38.898Z,47.00
2018-02-09T21:03:07.017Z,48.65
2018-02-09T21:05:35.140Z,45.72
2018-02-09T21:08:04.309Z,47.88
2018-02-09T21:10:32.421Z,46.22
2018-02-09T21:13:00.594Z,51.25
2018-02-09T21:15:28.710Z,46.70
2018-02-09T21:17:56.860Z,50.00
2018-02-09T21:20:25.004Z,48.80
2018-02-09T21:22:53.170Z,50.40
2018-02-09T21:25:22.066Z,50.85
2018-02-09T21:27:50.334Z,48.22
2018-02-09T21:30:18.566Z,46.45
2018-02-09T21:32:46.678Z,48.40
2018-02-09T21:35:15.570Z,48.45
2018-02-09T21:37:44.462Z,52.42
2018-02-09T21:40:12.646Z,47.97
2018-02-09T21:42:40.756Z,53.25
2018-02-09T21:45:08.866Z,50.72
2018-02-09T21:47:37.782Z,52.88
2018-02-09T21:50:05.898Z,51.80
2018-02-09T21:52:34.010Z,54.50
2018-02-09T21:55:02.902Z,53.58
2018-02-09T21:57:31.793Z,53.50
2018-02-09T22:00:00.682Z,52.80
2018-02-09T22:02:28.796Z,52.42
2018-02-09T22:04:56.908Z,56.00
2018-02-09T22:07:25.038Z,55.33
2018-02-09T22:09:53.160Z,50.55
2018-02-09T22:12:21.321Z,53.40
2018-02-09T22:14:49.423Z,50.50
2018-02-09T22:17:17.599Z,56.40
2018-02-09T22:19:45.763Z,53.50
2018-02-09T22:22:14.649Z,54.10
2018-02-09T22:24:43.531Z,53.00
2018-02-09T22:27:12.413Z,52.50
2018-02-09T22:29:40.556Z,52.55
2018-02-09T22:32:08.680Z,55.97
2018-02-09T22:34:36.793Z,55.28
2018-02-09T22:37:04.907Z,51.85
2018-02-09T22:39:33.049Z,60.17
2018-02-09T22:42:01.195Z,56.40
2018-02-09T22:44:29.303Z,56.83
2018-02-09T22:46:57.413Z,59.83
2018-02-09T22:49:25.547Z,57.83
2018-02-09T22:51:55.179Z,55.15
2018-02-09T22:54:24.188Z,55.22
2018-02-09T22:56:53.064Z,56.70
2018-02-09T22:59:22.167Z,53.28
2018-02-09T23:01:51.161Z,58.90
2018-02-09T23:04:20.047Z,58.15
2018-02-09T23:06:48.931Z,56.47
2018-02-09T23:09:17.831Z,60.08
2018-02-09T23:11:46.751Z,59.40
2018-02-09T23:14:14.867Z,56.97
2018-02-09T23:16:44.496Z,57.75
2018-02-09T23:19:13.386Z,57.92
2018-02-09T23:21:42.287Z,53.60
2018-02-09T23:24:10.399Z,61.40
2018-02-09T23:26:38.567Z,56.10
2018-02-09T23:29:06.663Z,56.35
2018-02-09T23:31:34.787Z,58.45
2018-02-09T23:34:02.903Z,53.17
2018-02-09T23:36:31.041Z,56.28
2018-02-09T23:38:59.177Z,64.22
2018-02-09T23:41:28.063Z,52.17
2018-02-09T23:43:56.947Z,57.50
2018-02-09T23:46:25.859Z,54.28
2018-02-09T23:48:54.037Z,53.08
2018-02-09T23:51:23.087Z,56.53
2018-02-09T23:53:51.203Z,55.42
2018-02-09T23:56:19.309Z,56.63
2018-02-09T23:58:47.423Z,57.22
